sensor_id;sensor_type;location;lat;lon;timestamp;P1;durP1;ratioP1;P2;durP2;ratioP2
16199;SDS011;8207;52.494;4.654;2022-12-07T00:00:51;5.60;;;1.50;;
16199;SDS011;8207;52.494;4.654;2022-12-07T00:03:18;6.33;;;1.30;;
16199;SDS011;8207;52.494;4.654;2022-12-07T00:05:44;10.87;;;1.50;;
16199;SDS011;8207;52.494;4.654;2022-12-07T00:08:11;4.77;;;1.17;;
16199;SDS011;8207;52.494;4.654;2022-12-07T00:10:40;5.10;;;1.00;;
16199;SDS011;8207;52.494;4.654;2022-12-07T00:13:06;5.53;;;1.20;;
16199;SDS011;8207;52.494;4.654;2022-12-07T00:15:33;4.83;;;1.50;;
16199;SDS011;8207;52.494;4.654;2022-12-07T00:18:01;3.37;;;0.87;;
16199;SDS011;8207;52.494;4.654;2022-12-07T00:20:28;5.43;;;1.10;;
16199;SDS011;8207;52.494;4.654;2022-12-07T00:22:55;3.53;;;0.90;;
16199;SDS011;8207;52.494;4.654;2022-12-07T00:25:22;1.70;;;0.70;;
16199;SDS011;8207;52.494;4.654;2022-12-07T00:27:50;3.47;;;1.20;;
16199;SDS011;8207;52.494;4.654;2022-12-07T00:30:18;1.70;;;0.60;;
16199;SDS011;8207;52.494;4.654;2022-12-07T00:32:45;2.47;;;0.90;;
16199;SDS011;8207;52.494;4.654;2022-12-07T00:35:12;3.00;;;1.00;;
16199;SDS011;8207;52.494;4.654;2022-12-07T00:37:40;1.23;;;0.80;;
16199;SDS011;8207;52.494;4.654;2022-12-07T00:40:07;2.10;;;0.67;;
16199;SDS011;8207;52.494;4.654;2022-12-07T00:42:34;2.33;;;0.90;;
16199;SDS011;8207;52.494;4.654;2022-12-07T00:45:05;3.83;;;1.20;;
16199;SDS011;8207;52.494;4.654;2022-12-07T00:47:33;5.97;;;1.00;;
16199;SDS011;8207;52.494;4.654;2022-12-07T00:50:00;4.87;;;1.20;;
16199;SDS011;8207;52.494;4.654;2022-12-07T00:52:27;7.87;;;1.30;;
16199;SDS011;8207;52.494;4.654;2022-12-07T00:54:54;3.57;;;1.40;;
16199;SDS011;8207;52.494;4.654;2022-12-07T00:57:22;5.07;;;1.50;;
16199;SDS011;8207;52.494;4.654;2022-12-07T00:59:49;7.37;;;1.70;;
16199;SDS011;8207;52.494;4.654;2022-12-07T01:02:21;2.80;;;0.90;;
16199;SDS011;8207;52.494;4.654;2022-12-07T01:04:48;4.33;;;1.10;;
16199;SDS011;8207;52.494;4.654;2022-12-07T01:07:17;3.67;;;0.93;;
16199;SDS011;8207;52.494;4.654;2022-12-07T01:09:45;2.73;;;1.10;;
16199;SDS011;8207;52.494;4.654;2022-12-07T01:12:13;3.53;;;1.10;;
16199;SDS011;8207;52.494;4.654;2022-12-07T01:14:41;4.73;;;1.00;;
16199;SDS011;8207;52.494;4.654;2022-12-07T01:17:08;3.90;;;1.00;;
16199;SDS011;8207;52.494;4.654;2022-12-07T01:19:36;2.73;;;0.90;;
16199;SDS011;8207;52.494;4.654;2022-12-07T01:22:04;3.50;;;0.80;;
16199;SDS011;8207;52.494;4.654;2022-12-07T01:24:31;3.03;;;0.87;;
16199;SDS011;8207;52.494;4.654;2022-12-07T01:26:58;5.07;;;1.57;;
16199;SDS011;8207;52.494;4.654;2022-12-07T01:29:25;3.37;;;0.93;;
16199;SDS011;8207;52.494;4.654;2022-12-07T01:31:52;0.80;;;0.70;;
16199;SDS011;8207;52.494;4.654;2022-12-07T01:34:18;3.60;;;0.70;;
16199;SDS011;8207;52.494;4.654;2022-12-07T01:36:48;2.00;;;0.97;;
16199;SDS011;8207;52.494;4.654;2022-12-07T01:39:15;3.23;;;0.73;;
16199;SDS011;8207;52.494;4.654;2022-12-07T01:41:41;5.67;;;1.00;;
16199;SDS011;8207;52.494;4.654;2022-12-07T01:44:10;5.83;;;1.10;;
16199;SDS011;8207;52.494;4.654;2022-12-07T01:46:40;4.73;;;1.20;;
16199;SDS011;8207;52.494;4.654;2022-12-07T01:49:11;3.57;;;0.93;;
16199;SDS011;8207;52.494;4.654;2022-12-07T01:51:43;5.83;;;0.90;;
16199;SDS011;8207;52.494;4.654;2022-12-07T01:54:14;7.43;;;1.40;;
16199;SDS011;8207;52.494;4.654;2022-12-07T01:56:42;5.43;;;1.00;;
16199;SDS011;8207;52.494;4.654;2022-12-07T01:59:14;4.00;;;1.20;;
16199;SDS011;8207;52.494;4.654;2022-12-07T02:01:43;2.73;;;1.03;;
16199;SDS011;8207;52.494;4.654;2022-12-07T02:04:10;3.57;;;1.30;;
16199;SDS011;8207;52.494;4.654;2022-12-07T02:06:38;3.17;;;1.13;;
16199;SDS011;8207;52.494;4.654;2022-12-07T02:09:05;5.80;;;1.80;;
16199;SDS011;8207;52.494;4.654;2022-12-07T02:11:33;9.23;;;1.80;;
16199;SDS011;8207;52.494;4.654;2022-12-07T02:14:00;7.93;;;1.50;;
16199;SDS011;8207;52.494;4.654;2022-12-07T02:16:30;6.33;;;1.33;;
16199;SDS011;8207;52.494;4.654;2022-12-07T02:19:14;10.00;;;1.40;;
16199;SDS011;8207;52.494;4.654;2022-12-07T02:22:08;11.17;;;1.70;;
16199;SDS011;8207;52.494;4.654;2022-12-07T02:24:52;12.20;;;2.00;;
16199;SDS011;8207;52.494;4.654;2022-12-07T02:30:15;8.23;;;2.07;;
16199;SDS011;8207;52.494;4.654;2022-12-07T02:32:48;11.67;;;2.37;;
16199;SDS011;8207;52.494;4.654;2022-12-07T02:35:21;8.30;;;2.03;;
16199;SDS011;8207;52.494;4.654;2022-12-07T02:37:57;8.30;;;1.53;;
16199;SDS011;8207;52.494;4.654;2022-12-07T02:40:29;24.33;;;3.33;;
16199;SDS011;8207;52.494;4.654;2022-12-07T02:43:01;7.77;;;1.60;;
16199;SDS011;8207;52.494;4.654;2022-12-07T02:45:35;8.17;;;2.00;;
16199;SDS011;8207;52.494;4.654;2022-12-07T02:48:05;6.60;;;1.40;;
16199;SDS011;8207;52.494;4.654;2022-12-07T02:50:33;10.67;;;2.07;;
16199;SDS011;8207;52.494;4.654;2022-12-07T02:53:00;12.87;;;1.67;;
16199;SDS011;8207;52.494;4.654;2022-12-07T02:55:28;7.10;;;1.57;;
16199;SDS011;8207;52.494;4.654;2022-12-07T02:58:05;10.50;;;1.87;;
16199;SDS011;8207;52.494;4.654;2022-12-07T03:00:52;4.83;;;1.37;;
16199;SDS011;8207;52.494;4.654;2022-12-07T03:03:26;8.10;;;1.40;;
16199;SDS011;8207;52.494;4.654;2022-12-07T03:06:06;9.00;;;1.67;;
16199;SDS011;8207;52.494;4.654;2022-12-07T03:08:44;5.03;;;1.50;;
16199;SDS011;8207;52.494;4.654;2022-12-07T03:11:19;11.20;;;2.17;;
16199;SDS011;8207;52.494;4.654;2022-12-07T03:13:53;10.53;;;1.53;;
16199;SDS011;8207;52.494;4.654;2022-12-07T03:16:26;10.40;;;1.60;;
16199;SDS011;8207;52.494;4.654;2022-12-07T03:18:56;13.17;;;2.03;;
16199;SDS011;8207;52.494;4.654;2022-12-07T03:21:27;8.83;;;2.27;;
16199;SDS011;8207;52.494;4.654;2022-12-07T03:23:58;13.30;;;2.07;;
16199;SDS011;8207;52.494;4.654;2022-12-07T03:26:30;12.57;;;2.43;;
16199;SDS011;8207;52.494;4.654;2022-12-07T03:29:00;12.70;;;2.07;;
16199;SDS011;8207;52.494;4.654;2022-12-07T03:31:34;8.83;;;2.17;;
16199;SDS011;8207;52.494;4.654;2022-12-07T03:34:07;7.97;;;2.07;;
16199;SDS011;8207;52.494;4.654;2022-12-07T03:36:39;6.60;;;1.53;;
16199;SDS011;8207;52.494;4.654;2022-12-07T03:39:14;6.40;;;1.70;;
16199;SDS011;8207;52.494;4.654;2022-12-07T03:41:48;11.00;;;2.63;;
16199;SDS011;8207;52.494;4.654;2022-12-07T03:44:16;9.40;;;1.63;;
16199;SDS011;8207;52.494;4.654;2022-12-07T03:46:46;8.90;;;1.97;;
16199;SDS011;8207;52.494;4.654;2022-12-07T03:49:18;9.47;;;1.63;;
16199;SDS011;8207;52.494;4.654;2022-12-07T03:51:51;5.87;;;1.10;;
16199;SDS011;8207;52.494;4.654;2022-12-07T03:54:24;5.77;;;1.47;;
16199;SDS011;8207;52.494;4.654;2022-12-07T03:56:56;5.67;;;1.70;;
16199;SDS011;8207;52.494;4.654;2022-12-07T03:59:25;10.13;;;1.70;;
16199;SDS011;8207;52.494;4.654;2022-12-07T04:01:55;5.57;;;1.30;;
16199;SDS011;8207;52.494;4.654;2022-12-07T04:04:23;8.93;;;2.17;;
16199;SDS011;8207;52.494;4.654;2022-12-07T04:06:51;6.63;;;1.90;;
16199;SDS011;8207;52.494;4.654;2022-12-07T04:09:18;9.03;;;1.63;;
16199;SDS011;8207;52.494;4.654;2022-12-07T04:11:45;12.27;;;2.77;;
16199;SDS011;8207;52.494;4.654;2022-12-07T04:14:12;11.67;;;1.67;;
16199;SDS011;8207;52.494;4.654;2022-12-07T04:16:45;6.13;;;1.50;;
16199;SDS011;8207;52.494;4.654;2022-12-07T04:19:14;8.20;;;1.70;;
16199;SDS011;8207;52.494;4.654;2022-12-07T04:21:41;6.67;;;1.90;;
16199;SDS011;8207;52.494;4.654;2022-12-07T04:24:08;6.60;;;1.30;;
16199;SDS011;8207;52.494;4.654;2022-12-07T04:26:35;5.20;;;1.10;;
16199;SDS011;8207;52.494;4.654;2022-12-07T04:29:02;2.97;;;0.73;;
16199;SDS011;8207;52.494;4.654;2022-12-07T04:31:29;1.47;;;0.80;;
16199;SDS011;8207;52.494;4.654;2022-12-07T04:33:56;3.27;;;1.00;;
16199;SDS011;8207;52.494;4.654;2022-12-07T04:36:24;4.53;;;1.07;;
16199;SDS011;8207;52.494;4.654;2022-12-07T04:38:52;5.97;;;1.30;;
16199;SDS011;8207;52.494;4.654;2022-12-07T04:41:20;4.37;;;1.10;;
16199;SDS011;8207;52.494;4.654;2022-12-07T04:43:52;2.90;;;1.17;;
16199;SDS011;8207;52.494;4.654;2022-12-07T04:46:19;6.63;;;1.10;;
16199;SDS011;8207;52.494;4.654;2022-12-07T04:48:46;4.37;;;0.97;;
16199;SDS011;8207;52.494;4.654;2022-12-07T04:51:13;3.30;;;1.00;;
16199;SDS011;8207;52.494;4.654;2022-12-07T04:53:43;2.70;;;0.90;;
16199;SDS011;8207;52.494;4.654;2022-12-07T04:56:10;4.67;;;1.00;;
16199;SDS011;8207;52.494;4.654;2022-12-07T04:58:36;2.60;;;0.90;;
16199;SDS011;8207;52.494;4.654;2022-12-07T05:01:03;4.27;;;1.13;;
16199;SDS011;8207;52.494;4.654;2022-12-07T05:03:30;3.20;;;0.93;;
16199;SDS011;8207;52.494;4.654;2022-12-07T05:05:57;3.60;;;1.07;;
16199;SDS011;8207;52.494;4.654;2022-12-07T05:08:24;3.80;;;1.10;;
16199;SDS011;8207;52.494;4.654;2022-12-07T05:10:52;6.27;;;1.30;;
16199;SDS011;8207;52.494;4.654;2022-12-07T05:13:19;2.50;;;1.40;;
16199;SDS011;8207;52.494;4.654;2022-12-07T05:15:46;4.77;;;1.30;;
16199;SDS011;8207;52.494;4.654;2022-12-07T05:18:13;3.13;;;1.33;;
16199;SDS011;8207;52.494;4.654;2022-12-07T05:20:40;3.70;;;1.20;;
16199;SDS011;8207;52.494;4.654;2022-12-07T05:23:07;5.00;;;1.50;;
16199;SDS011;8207;52.494;4.654;2022-12-07T05:25:34;5.63;;;1.10;;
16199;SDS011;8207;52.494;4.654;2022-12-07T05:28:03;5.20;;;1.17;;
16199;SDS011;8207;52.494;4.654;2022-12-07T05:30:31;4.27;;;1.40;;
16199;SDS011;8207;52.494;4.654;2022-12-07T05:32:58;4.27;;;1.10;;
16199;SDS011;8207;52.494;4.654;2022-12-07T05:35:25;1.83;;;1.10;;
16199;SDS011;8207;52.494;4.654;2022-12-07T05:37:52;3.30;;;1.07;;
16199;SDS011;8207;52.494;4.654;2022-12-07T05:40:18;3.50;;;1.10;;
16199;SDS011;8207;52.494;4.654;2022-12-07T05:42:45;3.90;;;1.13;;
16199;SDS011;8207;52.494;4.654;2022-12-07T05:45:14;10.80;;;1.47;;
16199;SDS011;8207;52.494;4.654;2022-12-07T05:47:41;7.23;;;1.17;;
16199;SDS011;8207;52.494;4.654;2022-12-07T05:50:08;6.90;;;1.47;;
16199;SDS011;8207;52.494;4.654;2022-12-07T05:52:35;5.63;;;1.50;;
16199;SDS011;8207;52.494;4.654;2022-12-07T05:55:01;7.43;;;1.50;;
16199;SDS011;8207;52.494;4.654;2022-12-07T05:57:28;6.73;;;1.63;;
16199;SDS011;8207;52.494;4.654;2022-12-07T05:59:55;3.97;;;1.00;;
16199;SDS011;8207;52.494;4.654;2022-12-07T06:02:22;8.13;;;1.80;;
16199;SDS011;8207;52.494;4.654;2022-12-07T06:04:49;12.23;;;2.30;;
16199;SDS011;8207;52.494;4.654;2022-12-07T06:07:16;7.07;;;1.33;;
16199;SDS011;8207;52.494;4.654;2022-12-07T06:09:43;10.97;;;1.63;;
16199;SDS011;8207;52.494;4.654;2022-12-07T06:12:11;2.63;;;1.00;;
16199;SDS011;8207;52.494;4.654;2022-12-07T06:14:56;6.50;;;1.30;;
16199;SDS011;8207;52.494;4.654;2022-12-07T06:17:24;7.30;;;1.20;;
16199;SDS011;8207;52.494;4.654;2022-12-07T06:19:51;6.43;;;1.20;;
16199;SDS011;8207;52.494;4.654;2022-12-07T06:22:18;4.97;;;1.97;;
16199;SDS011;8207;52.494;4.654;2022-12-07T06:24:44;4.73;;;1.50;;
16199;SDS011;8207;52.494;4.654;2022-12-07T06:27:11;6.50;;;2.10;;
16199;SDS011;8207;52.494;4.654;2022-12-07T06:29:38;2.60;;;1.17;;
16199;SDS011;8207;52.494;4.654;2022-12-07T06:32:05;4.67;;;1.03;;
16199;SDS011;8207;52.494;4.654;2022-12-07T06:34:34;4.07;;;0.90;;
16199;SDS011;8207;52.494;4.654;2022-12-07T06:37:01;3.73;;;1.20;;
16199;SDS011;8207;52.494;4.654;2022-12-07T06:39:28;3.30;;;1.20;;
16199;SDS011;8207;52.494;4.654;2022-12-07T06:41:55;3.07;;;1.20;;
16199;SDS011;8207;52.494;4.654;2022-12-07T06:44:23;3.30;;;0.90;;
16199;SDS011;8207;52.494;4.654;2022-12-07T06:46:51;1.70;;;1.00;;
16199;SDS011;8207;52.494;4.654;2022-12-07T06:49:19;2.10;;;0.80;;
16199;SDS011;8207;52.494;4.654;2022-12-07T06:51:47;8.03;;;2.63;;
16199;SDS011;8207;52.494;4.654;2022-12-07T06:54:14;5.10;;;1.80;;
16199;SDS011;8207;52.494;4.654;2022-12-07T06:56:42;4.20;;;1.13;;
16199;SDS011;8207;52.494;4.654;2022-12-07T06:59:09;2.53;;;1.00;;
16199;SDS011;8207;52.494;4.654;2022-12-07T07:01:36;9.77;;;2.90;;
16199;SDS011;8207;52.494;4.654;2022-12-07T07:04:03;4.83;;;1.40;;
16199;SDS011;8207;52.494;4.654;2022-12-07T07:06:31;8.57;;;2.77;;
16199;SDS011;8207;52.494;4.654;2022-12-07T07:09:00;12.90;;;1.70;;
16199;SDS011;8207;52.494;4.654;2022-12-07T07:11:27;7.77;;;1.13;;
16199;SDS011;8207;52.494;4.654;2022-12-07T07:13:54;12.40;;;2.40;;
16199;SDS011;8207;52.494;4.654;2022-12-07T07:16:27;4.77;;;1.40;;
16199;SDS011;8207;52.494;4.654;2022-12-07T07:18:54;6.50;;;1.57;;
16199;SDS011;8207;52.494;4.654;2022-12-07T07:21:20;4.97;;;1.30;;
16199;SDS011;8207;52.494;4.654;2022-12-07T07:23:47;5.80;;;1.80;;
16199;SDS011;8207;52.494;4.654;2022-12-07T07:26:16;5.07;;;1.60;;
16199;SDS011;8207;52.494;4.654;2022-12-07T07:28:42;6.03;;;1.27;;
16199;SDS011;8207;52.494;4.654;2022-12-07T07:31:09;8.03;;;1.37;;
16199;SDS011;8207;52.494;4.654;2022-12-07T07:33:36;5.17;;;0.90;;
16199;SDS011;8207;52.494;4.654;2022-12-07T07:36:03;5.53;;;1.10;;
16199;SDS011;8207;52.494;4.654;2022-12-07T07:38:31;1.33;;;0.80;;
16199;SDS011;8207;52.494;4.654;2022-12-07T07:40:58;2.93;;;0.93;;
16199;SDS011;8207;52.494;4.654;2022-12-07T07:43:26;7.10;;;1.37;;
16199;SDS011;8207;52.494;4.654;2022-12-07T07:45:53;5.20;;;1.20;;
16199;SDS011;8207;52.494;4.654;2022-12-07T07:48:20;3.73;;;1.10;;
16199;SDS011;8207;52.494;4.654;2022-12-07T07:50:50;5.97;;;1.20;;
16199;SDS011;8207;52.494;4.654;2022-12-07T07:53:17;4.03;;;1.03;;
16199;SDS011;8207;52.494;4.654;2022-12-07T07:55:49;3.23;;;1.10;;
16199;SDS011;8207;52.494;4.654;2022-12-07T07:58:17;4.73;;;1.27;;
16199;SDS011;8207;52.494;4.654;2022-12-07T08:00:45;7.03;;;1.13;;
16199;SDS011;8207;52.494;4.654;2022-12-07T08:03:12;5.80;;;2.33;;
16199;SDS011;8207;52.494;4.654;2022-12-07T08:05:39;6.57;;;1.70;;
16199;SDS011;8207;52.494;4.654;2022-12-07T08:08:06;8.67;;;1.70;;
16199;SDS011;8207;52.494;4.654;2022-12-07T08:10:33;5.43;;;1.30;;
16199;SDS011;8207;52.494;4.654;2022-12-07T08:13:00;6.90;;;1.47;;
16199;SDS011;8207;52.494;4.654;2022-12-07T08:15:40;7.53;;;1.23;;
16199;SDS011;8207;52.494;4.654;2022-12-07T08:18:09;4.07;;;1.10;;
16199;SDS011;8207;52.494;4.654;2022-12-07T08:20:37;5.90;;;1.30;;
16199;SDS011;8207;52.494;4.654;2022-12-07T08:23:04;5.50;;;1.07;;
16199;SDS011;8207;52.494;4.654;2022-12-07T08:25:32;4.60;;;1.30;;
16199;SDS011;8207;52.494;4.654;2022-12-07T08:27:59;3.30;;;1.07;;
16199;SDS011;8207;52.494;4.654;2022-12-07T08:30:27;3.67;;;1.30;;
16199;SDS011;8207;52.494;4.654;2022-12-07T08:32:56;4.37;;;1.27;;
16199;SDS011;8207;52.494;4.654;2022-12-07T08:35:24;5.47;;;1.23;;
16199;SDS011;8207;52.494;4.654;2022-12-07T08:37:52;6.27;;;1.30;;
16199;SDS011;8207;52.494;4.654;2022-12-07T08:40:22;4.23;;;1.10;;
16199;SDS011;8207;52.494;4.654;2022-12-07T08:42:49;3.77;;;1.10;;
16199;SDS011;8207;52.494;4.654;2022-12-07T08:45:17;9.83;;;1.90;;
16199;SDS011;8207;52.494;4.654;2022-12-07T08:47:46;6.03;;;1.50;;
16199;SDS011;8207;52.494;4.654;2022-12-07T08:50:16;8.83;;;1.60;;
16199;SDS011;8207;52.494;4.654;2022-12-07T08:52:45;6.00;;;1.60;;
16199;SDS011;8207;52.494;4.654;2022-12-07T08:55:17;6.33;;;1.80;;
16199;SDS011;8207;52.494;4.654;2022-12-07T08:57:44;5.13;;;1.23;;
16199;SDS011;8207;52.494;4.654;2022-12-07T09:00:12;9.97;;;3.60;;
16199;SDS011;8207;52.494;4.654;2022-12-07T09:02:39;2.80;;;1.10;;
16199;SDS011;8207;52.494;4.654;2022-12-07T09:05:07;2.13;;;1.00;;
16199;SDS011;8207;52.494;4.654;2022-12-07T09:07:34;4.53;;;1.17;;
16199;SDS011;8207;52.494;4.654;2022-12-07T09:10:04;3.00;;;1.07;;
16199;SDS011;8207;52.494;4.654;2022-12-07T09:12:32;3.50;;;1.00;;
16199;SDS011;8207;52.494;4.654;2022-12-07T09:14:59;2.63;;;1.10;;
16199;SDS011;8207;52.494;4.654;2022-12-07T09:17:26;3.07;;;0.93;;
16199;SDS011;8207;52.494;4.654;2022-12-07T09:19:53;6.13;;;1.30;;
16199;SDS011;8207;52.494;4.654;2022-12-07T09:22:20;10.10;;;1.70;;
16199;SDS011;8207;52.494;4.654;2022-12-07T09:24:47;4.83;;;1.47;;
16199;SDS011;8207;52.494;4.654;2022-12-07T09:27:16;5.73;;;1.17;;
16199;SDS011;8207;52.494;4.654;2022-12-07T09:29:43;7.60;;;1.53;;
16199;SDS011;8207;52.494;4.654;2022-12-07T09:32:10;9.17;;;1.80;;
16199;SDS011;8207;52.494;4.654;2022-12-07T09:34:38;7.80;;;1.97;;
16199;SDS011;8207;52.494;4.654;2022-12-07T09:37:04;6.87;;;1.57;;
16199;SDS011;8207;52.494;4.654;2022-12-07T09:39:31;6.70;;;1.90;;
16199;SDS011;8207;52.494;4.654;2022-12-07T09:41:59;13.73;;;3.27;;
16199;SDS011;8207;52.494;4.654;2022-12-07T09:44:30;5.40;;;1.80;;
16199;SDS011;8207;52.494;4.654;2022-12-07T09:46:58;7.47;;;2.67;;
16199;SDS011;8207;52.494;4.654;2022-12-07T09:49:27;7.47;;;1.67;;
16199;SDS011;8207;52.494;4.654;2022-12-07T09:52:00;5.87;;;1.60;;
16199;SDS011;8207;52.494;4.654;2022-12-07T09:54:29;10.20;;;3.40;;
16199;SDS011;8207;52.494;4.654;2022-12-07T09:56:56;5.70;;;2.00;;
16199;SDS011;8207;52.494;4.654;2022-12-07T09:59:24;6.87;;;2.03;;
16199;SDS011;8207;52.494;4.654;2022-12-07T10:01:53;7.60;;;1.87;;
16199;SDS011;8207;52.494;4.654;2022-12-07T10:04:21;5.97;;;1.30;;
16199;SDS011;8207;52.494;4.654;2022-12-07T10:06:49;6.60;;;1.80;;
16199;SDS011;8207;52.494;4.654;2022-12-07T10:09:18;6.07;;;1.53;;
16199;SDS011;8207;52.494;4.654;2022-12-07T10:14:30;8.93;;;1.47;;
16199;SDS011;8207;52.494;4.654;2022-12-07T10:17:00;6.90;;;2.17;;
16199;SDS011;8207;52.494;4.654;2022-12-07T10:19:28;3.17;;;1.00;;
16199;SDS011;8207;52.494;4.654;2022-12-07T10:21:59;6.20;;;1.20;;
16199;SDS011;8207;52.494;4.654;2022-12-07T10:24:36;5.77;;;1.10;;
16199;SDS011;8207;52.494;4.654;2022-12-07T10:27:04;8.13;;;1.37;;
16199;SDS011;8207;52.494;4.654;2022-12-07T10:29:32;3.63;;;1.23;;
16199;SDS011;8207;52.494;4.654;2022-12-07T10:32:05;5.77;;;1.30;;
16199;SDS011;8207;52.494;4.654;2022-12-07T10:34:52;3.73;;;1.47;;
16199;SDS011;8207;52.494;4.654;2022-12-07T10:37:45;5.57;;;1.73;;
16199;SDS011;8207;52.494;4.654;2022-12-07T10:40:23;8.33;;;1.23;;
16199;SDS011;8207;52.494;4.654;2022-12-07T10:43:07;11.30;;;1.60;;
16199;SDS011;8207;52.494;4.654;2022-12-07T10:45:56;6.57;;;1.00;;
16199;SDS011;8207;52.494;4.654;2022-12-07T10:48:41;7.90;;;1.27;;
16199;SDS011;8207;52.494;4.654;2022-12-07T10:51:18;3.70;;;0.80;;
16199;SDS011;8207;52.494;4.654;2022-12-07T10:53:54;1.97;;;0.70;;
16199;SDS011;8207;52.494;4.654;2022-12-07T10:56:32;4.60;;;1.10;;
16199;SDS011;8207;52.494;4.654;2022-12-07T10:59:18;5.00;;;0.87;;
16199;SDS011;8207;52.494;4.654;2022-12-07T11:02:13;2.57;;;0.87;;
16199;SDS011;8207;52.494;4.654;2022-12-07T11:04:58;4.40;;;0.90;;
16199;SDS011;8207;52.494;4.654;2022-12-07T11:07:38;4.47;;;1.00;;
16199;SDS011;8207;52.494;4.654;2022-12-07T11:10:13;3.97;;;1.10;;
16199;SDS011;8207;52.494;4.654;2022-12-07T11:12:47;6.07;;;2.00;;
16199;SDS011;8207;52.494;4.654;2022-12-07T11:15:28;6.83;;;1.73;;
16199;SDS011;8207;52.494;4.654;2022-12-07T11:18:03;2.63;;;1.00;;
16199;SDS011;8207;52.494;4.654;2022-12-07T11:20:41;5.57;;;1.83;;
16199;SDS011;8207;52.494;4.654;2022-12-07T11:23:15;4.33;;;0.97;;
16199;SDS011;8207;52.494;4.654;2022-12-07T11:25:49;5.90;;;2.27;;
16199;SDS011;8207;52.494;4.654;2022-12-07T11:28:28;6.93;;;1.10;;
16199;SDS011;8207;52.494;4.654;2022-12-07T11:31:09;4.87;;;1.20;;
16199;SDS011;8207;52.494;4.654;2022-12-07T11:33:45;3.13;;;1.00;;
16199;SDS011;8207;52.494;4.654;2022-12-07T11:36:23;2.97;;;1.30;;
16199;SDS011;8207;52.494;4.654;2022-12-07T11:39:00;6.63;;;1.93;;
16199;SDS011;8207;52.494;4.654;2022-12-07T11:41:31;4.07;;;1.70;;
16199;SDS011;8207;52.494;4.654;2022-12-07T11:44:02;7.60;;;1.80;;
16199;SDS011;8207;52.494;4.654;2022-12-07T11:46:36;4.73;;;1.40;;
16199;SDS011;8207;52.494;4.654;2022-12-07T11:49:13;5.87;;;0.97;;
16199;SDS011;8207;52.494;4.654;2022-12-07T11:51:46;4.73;;;1.13;;
16199;SDS011;8207;52.494;4.654;2022-12-07T11:54:17;6.13;;;0.97;;
16199;SDS011;8207;52.494;4.654;2022-12-07T11:56:50;4.03;;;1.30;;
16199;SDS011;8207;52.494;4.654;2022-12-07T11:59:22;5.83;;;1.10;;
16199;SDS011;8207;52.494;4.654;2022-12-07T12:01:57;8.40;;;2.33;;
16199;SDS011;8207;52.494;4.654;2022-12-07T12:04:32;2.87;;;1.53;;
16199;SDS011;8207;52.494;4.654;2022-12-07T12:07:11;5.27;;;1.20;;
16199;SDS011;8207;52.494;4.654;2022-12-07T12:09:46;4.47;;;1.00;;
16199;SDS011;8207;52.494;4.654;2022-12-07T12:12:21;2.73;;;1.20;;
16199;SDS011;8207;52.494;4.654;2022-12-07T12:15:20;3.70;;;0.80;;
16199;SDS011;8207;52.494;4.654;2022-12-07T12:18:00;3.37;;;0.97;;
16199;SDS011;8207;52.494;4.654;2022-12-07T12:20:51;3.33;;;1.20;;
16199;SDS011;8207;52.494;4.654;2022-12-07T12:23:24;5.03;;;1.10;;
16199;SDS011;8207;52.494;4.654;2022-12-07T12:25:56;3.43;;;1.00;;
16199;SDS011;8207;52.494;4.654;2022-12-07T12:28:26;4.50;;;0.80;;
16199;SDS011;8207;52.494;4.654;2022-12-07T12:31:06;2.87;;;0.77;;
16199;SDS011;8207;52.494;4.654;2022-12-07T12:33:36;6.43;;;1.13;;
16199;SDS011;8207;52.494;4.654;2022-12-07T12:39:11;2.70;;;1.00;;
16199;SDS011;8207;52.494;4.654;2022-12-07T12:50:30;2.63;;;1.00;;
16199;SDS011;8207;52.494;4.654;2022-12-07T12:53:00;2.30;;;1.10;;
16199;SDS011;8207;52.494;4.654;2022-12-07T13:01:54;6.73;;;1.03;;
16199;SDS011;8207;52.494;4.654;2022-12-07T13:10:24;6.17;;;1.33;;
16199;SDS011;8207;52.494;4.654;2022-12-07T13:13:04;6.33;;;1.03;;
16199;SDS011;8207;52.494;4.654;2022-12-07T13:16:15;4.03;;;0.93;;
16199;SDS011;8207;52.494;4.654;2022-12-07T13:22:03;4.23;;;1.60;;
16199;SDS011;8207;52.494;4.654;2022-12-07T13:24:54;6.63;;;1.20;;
16199;SDS011;8207;52.494;4.654;2022-12-07T13:27:22;6.67;;;1.27;;
16199;SDS011;8207;52.494;4.654;2022-12-07T13:29:50;5.20;;;1.50;;
16199;SDS011;8207;52.494;4.654;2022-12-07T13:32:22;7.23;;;2.03;;
16199;SDS011;8207;52.494;4.654;2022-12-07T13:34:50;3.53;;;1.07;;
16199;SDS011;8207;52.494;4.654;2022-12-07T13:37:18;5.77;;;1.10;;
16199;SDS011;8207;52.494;4.654;2022-12-07T13:39:50;5.20;;;1.07;;
16199;SDS011;8207;52.494;4.654;2022-12-07T13:42:19;3.30;;;0.97;;
16199;SDS011;8207;52.494;4.654;2022-12-07T13:44:51;3.87;;;0.83;;
16199;SDS011;8207;52.494;4.654;2022-12-07T13:47:30;3.30;;;0.67;;
16199;SDS011;8207;52.494;4.654;2022-12-07T13:50:15;1.20;;;0.60;;
16199;SDS011;8207;52.494;4.654;2022-12-07T13:52:50;0.60;;;0.47;;
16199;SDS011;8207;52.494;4.654;2022-12-07T13:55:21;2.03;;;0.70;;
16199;SDS011;8207;52.494;4.654;2022-12-07T13:57:49;2.57;;;0.60;;
16199;SDS011;8207;52.494;4.654;2022-12-07T14:00:18;1.77;;;0.60;;
16199;SDS011;8207;52.494;4.654;2022-12-07T14:02:56;4.40;;;0.80;;
16199;SDS011;8207;52.494;4.654;2022-12-07T14:05:25;4.33;;;1.30;;
16199;SDS011;8207;52.494;4.654;2022-12-07T14:07:54;2.93;;;1.00;;
16199;SDS011;8207;52.494;4.654;2022-12-07T14:10:23;3.03;;;1.30;;
16199;SDS011;8207;52.494;4.654;2022-12-07T14:12:51;5.77;;;1.00;;
16199;SDS011;8207;52.494;4.654;2022-12-07T14:15:19;6.53;;;1.30;;
16199;SDS011;8207;52.494;4.654;2022-12-07T14:17:51;4.37;;;0.83;;
16199;SDS011;8207;52.494;4.654;2022-12-07T14:20:30;7.03;;;1.43;;
16199;SDS011;8207;52.494;4.654;2022-12-07T14:22:59;7.03;;;1.40;;
16199;SDS011;8207;52.494;4.654;2022-12-07T14:25:34;8.67;;;2.20;;
16199;SDS011;8207;52.494;4.654;2022-12-07T14:28:24;8.03;;;1.40;;
16199;SDS011;8207;52.494;4.654;2022-12-07T14:30:52;5.40;;;1.03;;
16199;SDS011;8207;52.494;4.654;2022-12-07T14:33:18;4.10;;;1.27;;
16199;SDS011;8207;52.494;4.654;2022-12-07T14:35:48;4.27;;;0.83;;
16199;SDS011;8207;52.494;4.654;2022-12-07T14:38:15;6.20;;;1.00;;
16199;SDS011;8207;52.494;4.654;2022-12-07T14:40:43;3.53;;;0.90;;
16199;SDS011;8207;52.494;4.654;2022-12-07T14:43:11;3.83;;;1.27;;
16199;SDS011;8207;52.494;4.654;2022-12-07T14:45:40;11.33;;;1.30;;
16199;SDS011;8207;52.494;4.654;2022-12-07T14:48:07;4.43;;;1.57;;
16199;SDS011;8207;52.494;4.654;2022-12-07T14:50:38;5.00;;;1.60;;
16199;SDS011;8207;52.494;4.654;2022-12-07T14:53:11;5.17;;;1.03;;
16199;SDS011;8207;52.494;4.654;2022-12-07T14:55:40;6.40;;;1.77;;
16199;SDS011;8207;52.494;4.654;2022-12-07T14:58:08;8.00;;;1.80;;
16199;SDS011;8207;52.494;4.654;2022-12-07T15:00:39;5.33;;;1.70;;
16199;SDS011;8207;52.494;4.654;2022-12-07T15:03:06;5.47;;;1.40;;
16199;SDS011;8207;52.494;4.654;2022-12-07T15:05:33;6.70;;;1.03;;
16199;SDS011;8207;52.494;4.654;2022-12-07T15:08:00;4.10;;;1.20;;
16199;SDS011;8207;52.494;4.654;2022-12-07T15:10:30;5.97;;;1.83;;
16199;SDS011;8207;52.494;4.654;2022-12-07T15:12:58;5.70;;;1.40;;
16199;SDS011;8207;52.494;4.654;2022-12-07T15:15:45;3.90;;;1.33;;
16199;SDS011;8207;52.494;4.654;2022-12-07T15:18:12;5.40;;;1.53;;
16199;SDS011;8207;52.494;4.654;2022-12-07T15:20:39;5.97;;;1.60;;
16199;SDS011;8207;52.494;4.654;2022-12-07T15:23:06;7.20;;;1.33;;
16199;SDS011;8207;52.494;4.654;2022-12-07T15:25:34;8.03;;;1.50;;
16199;SDS011;8207;52.494;4.654;2022-12-07T15:28:01;9.93;;;1.83;;
16199;SDS011;8207;52.494;4.654;2022-12-07T15:30:28;5.77;;;1.30;;
16199;SDS011;8207;52.494;4.654;2022-12-07T15:32:55;17.17;;;2.70;;
16199;SDS011;8207;52.494;4.654;2022-12-07T15:35:22;3.10;;;1.50;;
16199;SDS011;8207;52.494;4.654;2022-12-07T15:37:49;9.23;;;1.30;;
16199;SDS011;8207;52.494;4.654;2022-12-07T15:40:16;7.50;;;4.83;;
16199;SDS011;8207;52.494;4.654;2022-12-07T15:42:44;11.63;;;6.27;;
16199;SDS011;8207;52.494;4.654;2022-12-07T15:45:11;6.27;;;3.03;;
16199;SDS011;8207;52.494;4.654;2022-12-07T15:47:39;7.93;;;4.07;;
16199;SDS011;8207;52.494;4.654;2022-12-07T15:50:08;14.17;;;9.60;;
16199;SDS011;8207;52.494;4.654;2022-12-07T15:52:36;13.47;;;8.03;;